createdAt,value
2023-04-30T00:02:27.885Z,101900.69
2023-04-30T00:04:56.137Z,101904.91
2023-04-30T00:07:24.445Z,101892.66
2023-04-30T00:09:53.101Z,101898.00
2023-04-30T00:12:22.000Z,101899.75
2023-04-30T00:14:51.947Z,101903.66
2023-04-30T00:17:20.197Z,101907.47
2023-04-30T00:19:48.443Z,101905.84
2023-04-30T00:22:16.710Z,101907.06
2023-04-30T00:24:45.184Z,101908.69
2023-04-30T00:27:13.429Z,101911.03
2023-04-30T00:29:42.269Z,101915.72
2023-04-30T00:32:11.957Z,101912.16
2023-04-30T00:34:40.348Z,101911.91
2023-04-30T00:37:08.583Z,101909.59
2023-04-30T00:39:36.799Z,101919.84
2023-04-30T00:42:05.200Z,101917.06
2023-04-30T00:44:33.418Z,101916.66
2023-04-30T00:47:01.682Z,101919.88
2023-04-30T00:49:31.345Z,101916.81
2023-04-30T00:51:59.665Z,101922.78
2023-04-30T00:54:27.971Z,101926.44
2023-04-30T00:56:56.349Z,101918.84
2023-04-30T00:59:25.555Z,101913.81
2023-04-30T01:01:54.882Z,101913.91
2023-04-30T01:04:23.241Z,101916.53
2023-04-30T01:06:53.125Z,101917.84
2023-04-30T01:09:21.613Z,101912.41
2023-04-30T01:12:01.793Z,101917.13
2023-04-30T01:14:39.256Z,101909.91
2023-04-30T01:17:14.328Z,101903.25
2023-04-30T01:19:45.304Z,101897.09
2023-04-30T01:22:37.323Z,101899.41
2023-04-30T01:25:24.511Z,101908.81
2023-04-30T01:28:06.717Z,101906.66
2023-04-30T01:30:36.478Z,101900.22
2023-04-30T01:33:05.368Z,101898.53
2023-04-30T01:35:59.980Z,101899.84
2023-04-30T01:38:47.985Z,101898.72
2023-04-30T01:41:29.518Z,101889.44
2023-04-30T01:44:25.857Z,101896.88
2023-04-30T01:47:08.802Z,101895.50
2023-04-30T01:49:58.064Z,101902.91
2023-04-30T01:52:33.368Z,101895.50
2023-04-30T01:55:10.766Z,101900.81
2023-04-30T01:57:41.430Z,101902.38
2023-04-30T02:00:12.797Z,101906.81
2023-04-30T02:02:41.143Z,101907.31
2023-04-30T02:05:10.202Z,101906.44
2023-04-30T02:07:42.613Z,101916.63
2023-04-30T02:10:12.950Z,101910.69
2023-04-30T02:12:42.131Z,101914.34
2023-04-30T02:15:12.844Z,101908.66
2023-04-30T02:17:41.181Z,101916.34
2023-04-30T02:20:10.630Z,101911.50
2023-04-30T02:22:39.258Z,101914.44
2023-04-30T02:25:08.388Z,101919.06
2023-04-30T02:27:36.635Z,101911.72
2023-04-30T02:30:06.291Z,101901.94
2023-04-30T02:32:36.302Z,101906.16
2023-04-30T02:35:04.952Z,101899.84
2023-04-30T02:37:33.219Z,101895.81
2023-04-30T02:40:01.470Z,101909.41
2023-04-30T02:42:29.732Z,101907.50
2023-04-30T02:44:57.952Z,101908.69
2023-04-30T02:47:26.218Z,101903.31
2023-04-30T02:49:56.023Z,101912.25
2023-04-30T02:52:24.570Z,101911.84
2023-04-30T02:54:52.811Z,101902.47
2023-04-30T02:57:21.033Z,101914.69
2023-04-30T02:59:49.438Z,101911.31
2023-04-30T03:02:21.493Z,101915.78
2023-04-30T03:04:50.204Z,101916.56
2023-04-30T03:07:19.939Z,101913.63
2023-04-30T03:09:48.254Z,101918.94
2023-04-30T03:12:16.625Z,101915.78
2023-04-30T03:14:44.878Z,101916.22
2023-04-30T03:17:13.131Z,101916.84
2023-04-30T03:19:41.372Z,101912.16
2023-04-30T03:22:09.613Z,101917.75
2023-04-30T03:24:39.258Z,101907.34
2023-04-30T03:27:07.469Z,101909.03
2023-04-30T03:29:35.847Z,101905.25
2023-04-30T03:32:04.249Z,101907.41
2023-04-30T03:34:32.676Z,101910.78
2023-04-30T03:37:01.852Z,101910.97
2023-04-30T03:39:30.098Z,101897.31
2023-04-30T03:41:59.669Z,101899.53
2023-04-30T03:44:27.903Z,101895.06
2023-04-30T03:46:56.142Z,101892.13
2023-04-30T03:49:24.418Z,101897.75
2023-04-30T03:51:52.630Z,101889.22
2023-04-30T03:54:21.337Z,101895.50
2023-04-30T03:56:49.592Z,101901.94
2023-04-30T03:59:19.624Z,101901.75
2023-04-30T04:01:47.851Z,101898.81
2023-04-30T04:04:16.221Z,101905.59
2023-04-30T04:06:44.655Z,101907.06
2023-04-30T04:09:13.326Z,101905.00
2023-04-30T04:11:41.524Z,101903.03
2023-04-30T04:14:09.848Z,101910.91
2023-04-30T04:16:39.522Z,101911.31
2023-04-30T04:19:07.783Z,101913.03
2023-04-30T04:21:36.038Z,101920.56
2023-04-30T04:24:08.562Z,101915.91
2023-04-30T04:26:37.344Z,101914.56
2023-04-30T04:29:05.766Z,101922.06
2023-04-30T04:31:34.111Z,101922.09
2023-04-30T04:34:06.216Z,101925.22
2023-04-30T04:36:34.520Z,101930.31
2023-04-30T04:39:03.194Z,101931.22
2023-04-30T04:41:32.701Z,101931.00
2023-04-30T04:44:01.824Z,101935.66
2023-04-30T04:46:31.616Z,101931.97
2023-04-30T04:49:00.564Z,101938.91
2023-04-30T04:51:30.439Z,101933.69
2023-04-30T04:53:58.959Z,101927.94
2023-04-30T04:56:27.350Z,101928.66
2023-04-30T04:58:55.659Z,101930.78
2023-04-30T05:01:23.897Z,101933.41
2023-04-30T05:03:53.764Z,101939.16
2023-04-30T05:06:22.162Z,101937.25
2023-04-30T05:08:51.787Z,101938.09
2023-04-30T05:11:20.008Z,101944.00
2023-04-30T05:13:48.251Z,101940.16
2023-04-30T05:16:16.778Z,101938.47
2023-04-30T05:18:45.089Z,101939.91
2023-04-30T05:21:13.337Z,101939.06
2023-04-30T05:23:41.581Z,101947.28
2023-04-30T05:26:11.206Z,101946.06
2023-04-30T05:28:39.401Z,101950.44
2023-04-30T05:31:07.754Z,101951.66
2023-04-30T05:33:37.160Z,101942.00
2023-04-30T05:36:06.250Z,101951.63
2023-04-30T05:38:34.444Z,101959.63
2023-04-30T05:41:02.690Z,101966.56
2023-04-30T05:43:32.530Z,101965.78
2023-04-30T05:46:00.848Z,101971.41
2023-04-30T05:48:29.081Z,101963.28
2023-04-30T05:50:57.357Z,101976.88
2023-04-30T05:53:25.603Z,101972.59
2023-04-30T05:55:53.872Z,101964.06
2023-04-30T05:58:22.084Z,101958.25
2023-04-30T06:00:53.057Z,101978.28
2023-04-30T06:03:21.531Z,101968.59
2023-04-30T06:05:49.892Z,101974.13
2023-04-30T06:08:18.154Z,101969.84
2023-04-30T06:10:46.601Z,101973.44
2023-04-30T06:13:15.447Z,101977.31
2023-04-30T06:15:43.763Z,101965.38
2023-04-30T06:18:14.380Z,101967.88
2023-04-30T06:20:42.697Z,101968.88
2023-04-30T06:23:10.946Z,101965.81
2023-04-30T06:25:39.374Z,101966.66
2023-04-30T06:28:09.316Z,101961.88
2023-04-30T06:30:38.376Z,101962.72
2023-04-30T06:33:06.689Z,101973.69
2023-04-30T06:35:36.586Z,101966.31
2023-04-30T06:38:05.137Z,101970.41
2023-04-30T06:40:33.436Z,101966.44
2023-04-30T06:43:01.948Z,101969.50
2023-04-30T06:45:30.838Z,101968.13
2023-04-30T06:47:59.572Z,101971.88
2023-04-30T06:50:28.280Z,101972.53
2023-04-30T06:52:58.194Z,101966.59
2023-04-30T06:55:28.140Z,101968.34
2023-04-30T06:57:57.876Z,101962.06
2023-04-30T07:00:26.601Z,101962.41
2023-04-30T07:02:56.347Z,101970.09
2023-04-30T07:05:24.920Z,101964.69
2023-04-30T07:07:53.540Z,101960.28
2023-04-30T07:10:23.536Z,101969.09
2023-04-30T07:12:52.096Z,101960.22
2023-04-30T07:15:20.937Z,101961.81
2023-04-30T07:17:49.592Z,101964.94
2023-04-30T07:20:18.226Z,101958.88
2023-04-30T07:22:47.047Z,101958.09
2023-04-30T07:25:16.030Z,101958.09
2023-04-30T07:27:46.403Z,101951.88
2023-04-30T07:30:14.962Z,101954.06
2023-04-30T07:32:43.753Z,101955.75
2023-04-30T07:35:12.340Z,101963.22
2023-04-30T07:37:41.613Z,101955.81
2023-04-30T07:40:15.296Z,101958.00
2023-04-30T07:42:47.254Z,101960.41
2023-04-30T07:45:15.847Z,101954.00
2023-04-30T07:47:44.545Z,101961.47
2023-04-30T07:50:14.865Z,101958.94
2023-04-30T07:52:43.444Z,101964.78
2023-04-30T07:55:11.941Z,101958.19
2023-04-30T07:57:40.464Z,101961.19
2023-04-30T08:00:11.324Z,101968.78
2023-04-30T08:02:39.992Z,101970.34
2023-04-30T08:05:09.329Z,101966.94
2023-04-30T08:07:37.874Z,101970.03
2023-04-30T08:10:07.177Z,101958.59
2023-04-30T08:12:38.079Z,101956.97
2023-04-30T08:15:07.910Z,101959.00
2023-04-30T08:17:38.106Z,101952.41
2023-04-30T08:20:08.444Z,101962.78
2023-04-30T08:22:36.702Z,101952.66
2023-04-30T08:25:05.345Z,101945.22
2023-04-30T08:27:33.850Z,101950.69
2023-04-30T08:30:02.066Z,101951.06
2023-04-30T08:32:30.754Z,101945.78
2023-04-30T08:35:00.411Z,101946.03
2023-04-30T08:37:28.687Z,101952.81
2023-04-30T08:39:57.158Z,101952.69
2023-04-30T08:42:36.400Z,101958.66
2023-04-30T08:45:05.693Z,101960.44
2023-04-30T08:47:34.334Z,101948.78
2023-04-30T08:50:04.240Z,101948.94
2023-04-30T08:52:35.665Z,101948.50
2023-04-30T08:55:08.059Z,101948.28
2023-04-30T08:57:37.727Z,101946.84
2023-04-30T09:00:08.387Z,101944.66
2023-04-30T09:02:40.692Z,101939.72
2023-04-30T09:05:13.518Z,101933.31
2023-04-30T09:07:52.005Z,101932.38
2023-04-30T09:10:33.546Z,101930.09
2023-04-30T09:13:02.626Z,101935.66
2023-04-30T09:15:32.174Z,101932.66
2023-04-30T09:18:12.482Z,101939.44
2023-04-30T09:20:57.440Z,101930.47
2023-04-30T09:23:26.233Z,101930.34
2023-04-30T09:25:54.722Z,101927.41
2023-04-30T09:28:25.599Z,101928.47
2023-04-30T09:30:54.789Z,101927.34
2023-04-30T09:33:23.087Z,101925.59
2023-04-30T09:35:52.794Z,101919.72
2023-04-30T09:38:28.903Z,101914.38
2023-04-30T09:41:00.775Z,101911.06
2023-04-30T09:43:29.685Z,101910.09
2023-04-30T09:46:00.723Z,101908.38
2023-04-30T09:48:29.578Z,101901.38
2023-04-30T09:50:59.541Z,101905.03
2023-04-30T09:53:29.251Z,101900.44
2023-04-30T09:56:03.957Z,101903.50
2023-04-30T09:58:37.451Z,101901.31
2023-04-30T10:01:08.019Z,101898.53
2023-04-30T10:03:37.619Z,101908.03
2023-04-30T10:06:08.986Z,101903.53
2023-04-30T10:08:43.204Z,101908.22
2023-04-30T10:11:17.327Z,101901.47
2023-04-30T10:13:53.873Z,101902.69
2023-04-30T10:16:35.578Z,101901.91
2023-04-30T10:19:10.934Z,101894.06
2023-04-30T10:21:43.499Z,101897.50
2023-04-30T10:24:14.575Z,101896.28
2023-04-30T10:26:44.588Z,101885.56
2023-04-30T10:29:15.035Z,101891.63
2023-04-30T10:31:47.850Z,101891.75
2023-04-30T10:34:27.111Z,101878.47
2023-04-30T10:37:01.622Z,101884.19
2023-04-30T10:39:30.551Z,101872.91
2023-04-30T10:42:06.286Z,101878.94
2023-04-30T10:44:38.486Z,101868.00
2023-04-30T10:47:08.588Z,101870.00
2023-04-30T10:49:37.062Z,101857.78
2023-04-30T10:52:07.272Z,101872.91
2023-04-30T10:54:39.242Z,101863.53
2023-04-30T10:57:17.650Z,101852.66
2023-04-30T10:59:54.292Z,101852.47
2023-04-30T11:02:22.965Z,101834.28
2023-04-30T11:05:15.180Z,101832.25
2023-04-30T11:07:52.908Z,101834.31
2023-04-30T11:10:24.840Z,101822.72
2023-04-30T11:12:54.689Z,101831.94
2023-04-30T11:15:27.182Z,101827.59
2023-04-30T11:17:59.571Z,101816.38
2023-04-30T11:20:29.071Z,101815.19
2023-04-30T11:23:13.174Z,101821.19
2023-04-30T11:25:45.665Z,101823.16
2023-04-30T11:28:17.782Z,101810.28
2023-04-30T11:30:54.348Z,101821.81
2023-04-30T11:33:27.246Z,101816.69
2023-04-30T11:35:56.396Z,101810.47
2023-04-30T11:38:29.465Z,101816.34
2023-04-30T11:40:59.046Z,101811.72
2023-04-30T11:43:29.186Z,101812.59
2023-04-30T11:46:07.207Z,101801.19
2023-04-30T11:48:37.518Z,101806.25
2023-04-30T11:51:16.524Z,101808.16
2023-04-30T11:53:47.733Z,101807.03
2023-04-30T11:56:18.985Z,101818.31
2023-04-30T11:58:49.009Z,101805.56
2023-04-30T12:01:17.911Z,101799.69
2023-04-30T12:03:48.542Z,101804.50
2023-04-30T12:06:24.816Z,101800.53
2023-04-30T12:08:56.026Z,101790.72
2023-04-30T12:11:25.974Z,101790.69
2023-04-30T12:14:03.466Z,101795.31
2023-04-30T12:16:44.361Z,101787.50
2023-04-30T12:19:13.029Z,101784.94
2023-04-30T12:21:44.680Z,101776.59
2023-04-30T12:24:15.061Z,101776.75
2023-04-30T12:26:43.720Z,101779.44
2023-04-30T12:29:15.842Z,101770.56
2023-04-30T12:31:45.481Z,101775.22
2023-04-30T12:34:16.082Z,101772.53
2023-04-30T12:36:44.490Z,101762.34
2023-04-30T12:39:16.772Z,101766.88
2023-04-30T12:41:47.182Z,101776.56
2023-04-30T12:44:19.990Z,101771.22
2023-04-30T12:46:49.250Z,101767.84
2023-04-30T12:49:28.287Z,101769.75
2023-04-30T12:52:07.446Z,101763.00
2023-04-30T12:54:38.662Z,101758.06
2023-04-30T12:57:09.075Z,101754.63
2023-04-30T12:59:40.509Z,101754.13
2023-04-30T13:02:13.876Z,101754.75
2023-04-30T13:04:43.642Z,101745.88
2023-04-30T13:07:12.578Z,101745.47
2023-04-30T13:09:42.197Z,101738.19
2023-04-30T13:12:10.525Z,101745.03
2023-04-30T13:14:38.841Z,101740.50
2023-04-30T13:17:10.052Z,101743.41
2023-04-30T13:19:38.341Z,101739.25
2023-04-30T13:22:06.599Z,101736.06
2023-04-30T13:24:34.883Z,101737.81
2023-04-30T13:27:05.107Z,101728.44
2023-04-30T13:29:33.421Z,101724.13
2023-04-30T13:32:01.716Z,101719.50
2023-04-30T13:34:29.966Z,101726.59
2023-04-30T13:36:58.219Z,101716.81
2023-04-30T13:39:26.639Z,101714.69
2023-04-30T13:41:54.910Z,101707.25
2023-04-30T13:44:24.634Z,101719.53
2023-04-30T13:46:52.900Z,101715.19
2023-04-30T13:49:21.220Z,101715.03
2023-04-30T13:51:49.868Z,101709.88
2023-04-30T13:54:18.133Z,101707.50
2023-04-30T13:56:46.463Z,101700.41
2023-04-30T13:59:14.806Z,101694.72
2023-04-30T14:01:44.465Z,101702.78
2023-04-30T14:04:14.227Z,101698.66
2023-04-30T14:06:43.329Z,101695.06
2023-04-30T14:09:11.842Z,101695.47
2023-04-30T14:11:40.117Z,101693.81
2023-04-30T14:14:09.850Z,101686.63
2023-04-30T14:16:38.522Z,101683.38
2023-04-30T14:19:08.176Z,101679.91
2023-04-30T14:21:36.471Z,101679.97
2023-04-30T14:24:05.014Z,101683.34
2023-04-30T14:26:33.434Z,101670.59
2023-04-30T14:29:01.699Z,101672.34
2023-04-30T14:31:30.173Z,101666.75
2023-04-30T14:33:58.536Z,101664.66
2023-04-30T14:36:29.055Z,101657.59
2023-04-30T14:38:57.422Z,101664.84
2023-04-30T14:41:25.818Z,101657.53
2023-04-30T14:43:54.217Z,101651.25
2023-04-30T14:46:22.707Z,101649.38
2023-04-30T14:48:50.986Z,101656.22
2023-04-30T14:51:19.226Z,101650.59
2023-04-30T14:53:48.938Z,101640.75
2023-04-30T14:56:17.306Z,101638.91
2023-04-30T14:58:45.545Z,101640.88
2023-04-30T15:01:13.852Z,101641.03
2023-04-30T15:03:42.494Z,101637.69
2023-04-30T15:06:11.262Z,101644.09
2023-04-30T15:08:40.728Z,101640.59
2023-04-30T15:11:10.884Z,101628.81
2023-04-30T15:13:39.136Z,101627.00
2023-04-30T15:16:08.355Z,101621.03
2023-04-30T15:18:37.290Z,101633.41
2023-04-30T15:21:06.130Z,101615.66
2023-04-30T15:23:34.386Z,101617.31
2023-04-30T15:26:03.796Z,101620.25
2023-04-30T15:28:34.095Z,101616.56
2023-04-30T15:31:03.150Z,101614.47
2023-04-30T15:33:31.814Z,101606.59
2023-04-30T15:36:00.477Z,101592.66
2023-04-30T15:38:29.259Z,101594.19
2023-04-30T15:40:57.558Z,101593.34
2023-04-30T15:43:25.785Z,101595.25
2023-04-30T15:45:55.428Z,101594.91
2023-04-30T15:48:23.710Z,101595.00
2023-04-30T15:50:52.041Z,101588.91
2023-04-30T15:53:20.290Z,101598.06
2023-04-30T15:55:50.725Z,101596.38
2023-04-30T15:58:18.962Z,101585.22
2023-04-30T16:00:47.258Z,101582.84
2023-04-30T16:03:16.980Z,101577.78
2023-04-30T16:05:45.362Z,101585.47
2023-04-30T16:08:13.826Z,101575.69
2023-04-30T16:10:42.205Z,101579.66
2023-04-30T16:13:10.474Z,101581.09
2023-04-30T16:15:38.797Z,101578.41
2023-04-30T16:18:07.828Z,101577.22
2023-04-30T16:20:38.394Z,101578.16
2023-04-30T16:23:06.966Z,101578.34
2023-04-30T16:25:35.263Z,101574.75
2023-04-30T16:28:03.490Z,101568.81
2023-04-30T16:30:31.830Z,101566.63
2023-04-30T16:33:00.237Z,101561.50
2023-04-30T16:35:28.623Z,101568.63
2023-04-30T16:37:58.245Z,101559.81
2023-04-30T16:40:26.722Z,101575.25
2023-04-30T16:42:55.652Z,101560.78
2023-04-30T16:45:24.170Z,101564.44
2023-04-30T16:47:52.535Z,101556.81
2023-04-30T16:50:20.862Z,101560.56
2023-04-30T16:52:49.117Z,101561.56
2023-04-30T16:55:18.856Z,101553.34
2023-04-30T16:57:47.172Z,101555.72
2023-04-30T17:00:16.809Z,101557.00
2023-04-30T17:02:48.922Z,101558.00
2023-04-30T17:05:17.486Z,101558.19
2023-04-30T17:07:45.804Z,101558.44
2023-04-30T17:10:15.069Z,101552.06
2023-04-30T17:12:45.389Z,101547.59
2023-04-30T17:15:13.744Z,101544.38
2023-04-30T17:17:42.263Z,101547.53
2023-04-30T17:20:12.247Z,101526.75
2023-04-30T17:22:40.522Z,101532.06
2023-04-30T17:25:09.981Z,101530.94
2023-04-30T17:27:38.646Z,101529.03
2023-04-30T17:30:10.063Z,101534.31
2023-04-30T17:32:39.119Z,101532.66
2023-04-30T17:35:08.336Z,101529.81
2023-04-30T17:37:36.987Z,101527.69
2023-04-30T17:40:06.502Z,101525.78
2023-04-30T17:42:35.166Z,101525.34
2023-04-30T17:45:03.538Z,101522.81
2023-04-30T17:47:33.282Z,101528.59
2023-04-30T17:50:04.622Z,101523.19
2023-04-30T17:52:35.590Z,101521.69
2023-04-30T17:55:03.924Z,101532.78
2023-04-30T17:57:32.224Z,101524.28
2023-04-30T18:00:00.551Z,101520.50
2023-04-30T18:02:28.991Z,101518.88
2023-04-30T18:04:58.642Z,101518.59
2023-04-30T18:07:26.913Z,101517.34
2023-04-30T18:09:55.335Z,101516.00
2023-04-30T18:12:23.792Z,101515.34
2023-04-30T18:14:52.133Z,101515.53
2023-04-30T18:17:20.428Z,101516.25
2023-04-30T18:19:49.805Z,101516.00
2023-04-30T18:22:19.954Z,101521.13
2023-04-30T18:24:48.242Z,101516.63
2023-04-30T18:27:16.516Z,101520.94
2023-04-30T18:29:45.234Z,101518.31
2023-04-30T18:32:13.751Z,101522.69
2023-04-30T18:34:42.367Z,101511.00
2023-04-30T18:37:10.891Z,101516.72
2023-04-30T18:39:40.723Z,101517.53
2023-04-30T18:42:09.473Z,101513.13
2023-04-30T18:44:37.962Z,101510.84
2023-04-30T18:47:06.934Z,101510.88
2023-04-30T18:49:35.190Z,101513.34
2023-04-30T18:52:03.536Z,101511.34
2023-04-30T18:54:31.899Z,101514.59
2023-04-30T18:57:01.506Z,101511.72
2023-04-30T18:59:29.800Z,101515.34
2023-04-30T19:01:58.103Z,101514.69
2023-04-30T19:04:26.449Z,101510.53
2023-04-30T19:06:55.744Z,101517.97
2023-04-30T19:09:24.534Z,101512.75
2023-04-30T19:11:53.279Z,101507.72
2023-04-30T19:14:23.685Z,101505.81
2023-04-30T19:16:52.554Z,101513.53
2023-04-30T19:19:22.227Z,101518.66
2023-04-30T19:21:51.648Z,101515.16
2023-04-30T19:24:21.288Z,101517.69
2023-04-30T19:26:50.996Z,101522.03
2023-04-30T19:29:19.704Z,101518.72
2023-04-30T19:31:49.857Z,101524.28
2023-04-30T19:34:18.651Z,101522.25
2023-04-30T19:36:47.634Z,101528.00
2023-04-30T19:39:16.630Z,101528.66
2023-04-30T19:41:45.297Z,101539.00
2023-04-30T19:44:14.490Z,101540.66
2023-04-30T19:46:44.381Z,101540.41
2023-04-30T19:49:17.114Z,101538.97
2023-04-30T19:51:45.866Z,101528.00
2023-04-30T19:54:15.455Z,101531.56
2023-04-30T19:56:44.404Z,101527.25
2023-04-30T19:59:14.456Z,101532.94
2023-04-30T20:01:43.245Z,101521.69
2023-04-30T20:04:13.448Z,101527.03
2023-04-30T20:06:42.081Z,101525.97
2023-04-30T20:09:13.871Z,101522.03
2023-04-30T20:11:42.457Z,101524.78
2023-04-30T20:14:11.369Z,101528.84
2023-04-30T20:16:40.352Z,101519.91
2023-04-30T20:19:09.839Z,101528.84
2023-04-30T20:21:40.021Z,101524.84
2023-04-30T20:24:09.571Z,101527.69
2023-04-30T20:26:38.504Z,101522.75
2023-04-30T20:29:07.150Z,101528.28
2023-04-30T20:31:37.170Z,101515.88
2023-04-30T20:34:05.703Z,101518.38
2023-04-30T20:36:34.693Z,101518.34
2023-04-30T20:39:09.439Z,101515.53
2023-04-30T20:41:38.135Z,101513.31
2023-04-30T20:44:07.023Z,101510.47
2023-04-30T20:46:38.818Z,101516.72
2023-04-30T20:49:07.316Z,101509.66
2023-04-30T20:51:36.916Z,101509.19
2023-04-30T20:54:08.761Z,101510.88
2023-04-30T20:56:37.411Z,101513.81
2023-04-30T20:59:06.061Z,101503.91
2023-04-30T21:01:34.813Z,101509.00
2023-04-30T21:04:05.032Z,101506.91
2023-04-30T21:06:34.113Z,101501.22
2023-04-30T21:09:03.331Z,101505.38
2023-04-30T21:11:33.920Z,101505.59
2023-04-30T21:14:02.700Z,101496.59
2023-04-30T21:16:32.814Z,101502.38
2023-04-30T21:19:01.924Z,101488.50
2023-04-30T21:21:31.199Z,101497.25
2023-04-30T21:24:02.657Z,101489.47
2023-04-30T21:26:32.690Z,101487.16
2023-04-30T21:29:02.657Z,101487.94
2023-04-30T21:31:31.904Z,101480.88
2023-04-30T21:34:00.706Z,101479.06
2023-04-30T21:36:30.185Z,101481.91
2023-04-30T21:38:59.566Z,101478.97
2023-04-30T21:41:28.886Z,101484.56
2023-04-30T21:43:58.751Z,101480.25
2023-04-30T21:46:27.545Z,101480.72
2023-04-30T21:48:56.695Z,101477.84
2023-04-30T21:51:27.090Z,101472.78
2023-04-30T21:53:55.697Z,101461.91
2023-04-30T21:56:26.493Z,101465.72
2023-04-30T21:58:55.353Z,101463.38
2023-04-30T22:01:28.033Z,101461.34
2023-04-30T22:03:56.932Z,101455.53
2023-04-30T22:06:25.633Z,101453.16
2023-04-30T22:08:54.169Z,101446.22
2023-04-30T22:11:22.896Z,101443.53
2023-04-30T22:13:51.284Z,101440.19
2023-04-30T22:16:20.263Z,101443.72
2023-04-30T22:18:50.499Z,101436.44
2023-04-30T22:21:19.514Z,101429.50
2023-04-30T22:23:49.034Z,101433.41
2023-04-30T22:26:17.550Z,101432.88
2023-04-30T22:28:45.942Z,101438.97
2023-04-30T22:31:14.489Z,101426.38
2023-04-30T22:33:43.024Z,101433.78
2023-04-30T22:36:13.017Z,101427.50
2023-04-30T22:38:42.103Z,101430.59
2023-04-30T22:41:11.026Z,101425.16
2023-04-30T22:43:39.856Z,101424.56
2023-04-30T22:46:08.753Z,101423.88
2023-04-30T22:48:40.471Z,101421.31
2023-04-30T22:51:09.633Z,101423.25
2023-04-30T22:53:39.757Z,101423.28
2023-04-30T22:56:09.024Z,101427.94
2023-04-30T22:58:37.486Z,101419.31
2023-04-30T23:01:06.336Z,101421.25
2023-04-30T23:03:35.652Z,101422.75
2023-04-30T23:06:04.679Z,101423.38
2023-04-30T23:08:33.585Z,101416.56
2023-04-30T23:11:05.534Z,101419.31
2023-04-30T23:13:34.558Z,101416.13
2023-04-30T23:16:05.637Z,101410.41
2023-04-30T23:18:34.354Z,101413.28
2023-04-30T23:21:06.010Z,101400.84
2023-04-30T23:23:35.101Z,101402.78
2023-04-30T23:26:06.528Z,101404.81
2023-04-30T23:28:37.292Z,101405.81
2023-04-30T23:31:06.165Z,101405.00
2023-04-30T23:33:34.562Z,101402.84
2023-04-30T23:36:03.275Z,101402.06
2023-04-30T23:38:31.932Z,101400.66
2023-04-30T23:41:03.453Z,101397.25
2023-04-30T23:43:34.848Z,101397.63
2023-04-30T23:46:04.169Z,101392.28
2023-04-30T23:48:32.998Z,101387.78
2023-04-30T23:51:02.470Z,101394.22
2023-04-30T23:53:31.796Z,101381.63
2023-04-30T23:56:00.888Z,101383.63
2023-04-30T23:58:31.029Z,101374.38
